Time;durP1;ratioP1;P1;durP2;ratioP2;P2;SDS_P1;SDS_P2;PMS_P1;PMS_P2;Temp;Humidity;BMP_temperature;BMP_pressure;BME280_temperature;BME280_humidity;BME280_pressure;Samples;Min_cycle;Max_cycle;Signal;HPM_P1;HPM_P2
2023/04/23 00:02:13;;;;;;;6.63;5.87;;;18.50;92.10;;;;;;5128200;27;20613;-69
2023/04/23 00:04:49;;;;;;;6.77;6.13;;;18.50;92.60;;;;;;5128007;27;20201;-69
2023/04/23 00:07:19;;;;;;;6.63;5.90;;;18.50;92.50;;;;;;5128353;27;20194;-68
2023/04/23 00:09:49;;;;;;;7.00;6.40;;;18.40;93.20;;;;;;5127603;27;20217;-69
2023/04/23 00:12:17;;;;;;;6.37;5.97;;;18.40;94.30;;;;;;5127991;27;20331;-69
2023/04/23 00:14:44;;;;;;;7.17;6.43;;;18.40;94.60;;;;;;5128218;27;20280;-69
2023/04/23 00:17:11;;;;;;;7.37;6.60;;;18.40;94.50;;;;;;5127789;27;20210;-69
2023/04/23 00:19:38;;;;;;;7.80;6.43;;;18.30;95.40;;;;;;5127641;27;20233;-69
2023/04/23 00:22:05;;;;;;;7.03;6.30;;;18.30;95.30;;;;;;5128104;27;20300;-69
2023/04/23 00:24:34;;;;;;;7.00;6.33;;;18.20;94.90;;;;;;5128108;27;20748;-69
2023/04/23 00:27:03;;;;;;;7.30;6.47;;;18.20;94.90;;;;;;5127627;27;20209;-69
2023/04/23 00:29:30;;;;;;;8.93;6.50;;;18.20;94.80;;;;;;5128114;27;20249;-69
2023/04/23 00:31:57;;;;;;;7.63;6.83;;;18.20;95.10;;;;;;5127609;27;20295;-69
2023/04/23 00:34:23;;;;;;;7.10;6.40;;;18.20;95.60;;;;;;5127983;27;20209;-69
2023/04/23 00:36:50;;;;;;;8.60;6.87;;;18.10;95.50;;;;;;5127965;27;20292;-69
2023/04/23 00:39:17;;;;;;;9.37;7.17;;;18.10;95.30;;;;;;5127704;27;20296;-69
2023/04/23 00:41:44;;;;;;;9.63;7.00;;;18.10;95.50;;;;;;5127209;27;20296;-69
2023/04/23 00:44:13;;;;;;;6.87;6.37;;;18.10;96.00;;;;;;5127669;27;20205;-69
2023/04/23 00:46:39;;;;;;;7.97;7.27;;;18.10;96.20;;;;;;5127406;27;20204;-70
2023/04/23 00:49:06;;;;;;;7.43;6.63;;;18.10;96.30;;;;;;5127059;27;20205;-70
2023/04/23 00:51:33;;;;;;;7.23;6.50;;;18.00;96.20;;;;;;5127291;27;20719;-69
2023/04/23 00:54:00;;;;;;;7.93;7.30;;;18.00;96.10;;;;;;5126924;27;20324;-70
2023/04/23 00:56:28;;;;;;;11.97;7.50;;;18.00;96.60;;;;;;5127594;27;20206;-70
2023/04/23 00:58:56;;;;;;;7.97;7.03;;;18.00;97.80;;;;;;5127130;27;20652;-69
2023/04/23 01:01:25;;;;;;;7.10;6.60;;;18.00;98.30;;;;;;5127472;27;20639;-68
2023/04/23 01:03:53;;;;;;;8.03;7.27;;;18.00;98.10;;;;;;5126885;27;20209;-69
2023/04/23 01:06:20;;;;;;;8.23;7.03;;;18.00;98.20;;;;;;5127059;27;20296;-68
2023/04/23 01:08:47;;;;;;;7.03;6.53;;;17.90;97.90;;;;;;5126805;27;20205;-69
2023/04/23 01:11:15;;;;;;;7.70;6.93;;;17.90;97.90;;;;;;5127217;27;20237;-69
2023/04/23 01:13:42;;;;;;;8.37;7.13;;;17.90;98.30;;;;;;5125236;27;20225;-69
2023/04/23 01:16:10;;;;;;;7.60;6.83;;;17.90;98.30;;;;;;5106771;28;20290;-68
2023/04/23 01:18:39;;;;;;;9.00;6.87;;;17.90;97.90;;;;;;5106411;28;20288;-69
2023/04/23 01:21:07;;;;;;;8.20;6.93;;;17.80;98.20;;;;;;5106344;28;20454;-69
2023/04/23 01:23:35;;;;;;;8.50;7.13;;;17.80;98.50;;;;;;5106475;28;20209;-69
2023/04/23 01:26:02;;;;;;;7.80;7.00;;;17.80;98.80;;;;;;5106392;28;20289;-70
2023/04/23 01:28:30;;;;;;;7.50;6.80;;;17.70;98.60;;;;;;5106453;28;20736;-69
2023/04/23 01:30:57;;;;;;;7.97;7.00;;;17.70;98.10;;;;;;5106387;28;20212;-69
2023/04/23 01:33:25;;;;;;;7.97;7.23;;;17.70;98.20;;;;;;5106226;28;20736;-70
2023/04/23 01:35:54;;;;;;;7.33;6.60;;;17.70;98.80;;;;;;5106150;28;20309;-70
2023/04/23 01:38:23;;;;;;;8.83;7.37;;;17.60;99.50;;;;;;5106335;28;20225;-70
2023/04/23 01:40:51;;;;;;;7.97;7.07;;;17.60;99.90;;;;;;5106153;28;20198;-70
2023/04/23 01:43:18;;;;;;;8.67;7.37;;;17.50;99.90;;;;;;5105934;28;20237;-70
2023/04/23 01:45:45;;;;;;;7.93;7.10;;;17.50;99.90;;;;;;5111632;27;20312;-70
2023/04/23 01:48:12;;;;;;;7.20;6.60;;;17.40;99.90;;;;;;5126125;27;20296;-70
2023/04/23 01:50:40;;;;;;;8.03;7.30;;;17.30;99.90;;;;;;5126381;27;20197;-70
2023/04/23 01:53:07;;;;;;;9.47;7.30;;;17.30;99.90;;;;;;5126463;27;20290;-70
2023/04/23 01:55:37;;;;;;;8.63;6.90;;;17.20;99.90;;;;;;5126798;27;20206;-70
2023/04/23 01:58:05;;;;;;;7.20;6.60;;;17.20;99.90;;;;;;5126666;27;20655;-70
2023/04/23 02:00:32;;;;;;;7.07;6.47;;;17.10;99.90;;;;;;5145202;27;20209;-70
2023/04/23 02:02:59;;;;;;;8.17;7.43;;;17.00;99.90;;;;;;5146480;27;20730;-70
2023/04/23 02:05:29;;;;;;;7.60;6.80;;;16.80;99.90;;;;;;5147234;27;20235;-70
2023/04/23 02:07:56;;;;;;;9.77;7.37;;;16.80;99.90;;;;;;5146662;27;20295;-70
2023/04/23 02:10:24;;;;;;;9.27;7.67;;;16.80;99.90;;;;;;5146871;27;20241;-71
2023/04/23 02:12:51;;;;;;;7.97;7.10;;;16.90;99.90;;;;;;5146708;27;20224;-70
2023/04/23 02:15:20;;;;;;;7.97;7.27;;;16.90;99.90;;;;;;5146825;27;20503;-70
2023/04/23 02:17:49;;;;;;;8.47;7.00;;;16.90;99.90;;;;;;5146570;27;20299;-70
2023/04/23 02:20:17;;;;;;;8.97;7.40;;;16.90;99.90;;;;;;5146764;27;20211;-70
2023/04/23 02:22:44;;;;;;;8.10;7.30;;;16.90;99.90;;;;;;5140296;27;20237;-70
2023/04/23 02:25:14;;;;;;;8.90;8.10;;;16.90;99.90;;;;;;5125941;27;20213;-70
2023/04/23 02:27:41;;;;;;;7.80;7.10;;;16.80;99.90;;;;;;5126152;27;20277;-70
2023/04/23 02:30:10;;;;;;;8.70;7.90;;;16.80;99.90;;;;;;5111249;27;20210;-70
2023/04/23 02:32:40;;;;;;;8.47;7.67;;;16.70;99.90;;;;;;5107224;28;20289;-70
2023/04/23 02:35:08;;;;;;;8.53;7.73;;;16.70;99.90;;;;;;5109399;28;20186;-70
2023/04/23 02:37:35;;;;;;;11.00;8.30;;;16.70;99.90;;;;;;5109866;28;20202;-70
2023/04/23 02:40:03;;;;;;;8.90;8.10;;;16.70;99.90;;;;;;5109642;28;20208;-70
2023/04/23 02:42:30;;;;;;;8.20;7.40;;;16.60;99.90;;;;;;5119526;27;20209;-70
2023/04/23 02:44:57;;;;;;;7.77;7.13;;;16.60;99.90;;;;;;5129794;27;20300;-70
2023/04/23 02:47:24;;;;;;;8.07;7.27;;;16.30;99.90;;;;;;5129592;27;20705;-70
2023/04/23 02:49:52;;;;;;;7.97;7.37;;;16.20;99.90;;;;;;5129582;27;20261;-70
2023/04/23 02:52:20;;;;;;;8.37;7.67;;;16.30;99.90;;;;;;5130086;27;21037;-70
2023/04/23 02:54:47;;;;;;;8.20;7.50;;;16.20;99.90;;;;;;5129153;27;20718;-70
2023/04/23 02:57:15;;;;;;;7.63;7.10;;;16.30;99.90;;;;;;5129637;27;20314;-71
2023/04/23 02:59:42;;;;;;;8.73;7.97;;;16.30;99.90;;;;;;5118412;27;20256;-70
2023/04/23 03:02:09;;;;;;;11.37;7.60;;;16.00;99.90;;;;;;5108553;28;20293;-71
2023/04/23 03:04:36;;;;;;;8.23;7.47;;;16.00;99.90;;;;;;5108731;28;20309;-71
2023/04/23 03:07:04;;;;;;;8.67;7.87;;;15.80;99.90;;;;;;5108965;28;20309;-71
2023/04/23 03:09:31;;;;;;;8.50;7.70;;;15.70;99.90;;;;;;5108952;28;20332;-70
2023/04/23 03:11:58;;;;;;;7.90;7.20;;;15.50;99.90;;;;;;5108392;28;20775;-70
2023/04/23 03:14:25;;;;;;;11.73;7.13;;;15.40;99.90;;;;;;5109061;28;20237;-70
2023/04/23 03:16:51;;;;;;;8.23;7.43;;;15.50;99.90;;;;;;5109117;28;20225;-70
2023/04/23 03:19:18;;;;;;;8.27;7.47;;;15.60;99.90;;;;;;5108562;28;21111;-70
2023/04/23 03:21:45;;;;;;;8.77;7.47;;;15.70;99.90;;;;;;5108565;28;20302;-70
2023/04/23 03:24:15;;;;;;;7.33;6.73;;;15.90;99.90;;;;;;5127190;27;20377;-70
2023/04/23 03:26:41;;;;;;;7.83;7.00;;;16.00;99.90;;;;;;5129096;27;20292;-71
2023/04/23 03:29:09;;;;;;;7.93;7.13;;;16.10;99.90;;;;;;5129214;27;20206;-71
2023/04/23 03:31:36;;;;;;;7.70;6.93;;;16.10;99.90;;;;;;5128703;27;20437;-70
2023/04/23 03:34:03;;;;;;;7.37;6.73;;;16.20;99.90;;;;;;5128889;27;20235;-70
2023/04/23 03:36:31;;;;;;;8.43;7.10;;;16.30;99.90;;;;;;5128940;27;20301;-70
2023/04/23 03:38:57;;;;;;;10.70;7.07;;;16.30;99.90;;;;;;5128720;27;20217;-70
2023/04/23 03:41:26;;;;;;;7.63;6.93;;;16.30;99.90;;;;;;5129121;27;20304;-70
2023/04/23 03:43:53;;;;;;;8.20;7.23;;;16.40;99.90;;;;;;5128057;27;20854;-69
2023/04/23 03:46:19;;;;;;;7.93;7.27;;;16.40;99.90;;;;;;5128822;27;20292;-69
2023/04/23 03:48:46;;;;;;;8.10;7.47;;;16.40;99.90;;;;;;5128239;27;20328;-70
2023/04/23 03:51:13;;;;;;;8.23;6.93;;;16.40;99.90;;;;;;5128837;27;20205;-69
2023/04/23 03:53:40;;;;;;;8.07;7.33;;;16.40;99.90;;;;;;5128227;27;20314;-69
2023/04/23 03:56:07;;;;;;;8.37;7.67;;;16.40;99.90;;;;;;5128354;27;20205;-69
2023/04/23 03:58:35;;;;;;;8.03;7.33;;;16.10;99.90;;;;;;5110421;27;20321;-69
2023/04/23 04:01:02;;;;;;;7.80;7.10;;;16.10;99.90;;;;;;5127952;27;20237;-69
2023/04/23 04:03:29;;;;;;;7.77;6.70;;;16.10;99.90;;;;;;5128082;27;20701;-69
2023/04/23 04:05:56;;;;;;;7.37;6.77;;;16.10;99.90;;;;;;5128107;27;20209;-70
2023/04/23 04:08:25;;;;;;;8.43;7.63;;;16.20;99.90;;;;;;5127886;27;20312;-69
2023/04/23 04:10:52;;;;;;;9.87;7.70;;;16.00;99.90;;;;;;5127845;27;20339;-70
2023/04/23 04:13:19;;;;;;;9.20;7.73;;;15.90;99.90;;;;;;5128258;27;20239;-70
2023/04/23 04:15:47;;;;;;;8.07;7.30;;;15.70;99.90;;;;;;5128164;27;20300;-70
2023/04/23 04:18:15;;;;;;;8.27;7.43;;;15.70;99.90;;;;;;5127764;27;20561;-70
2023/04/23 04:20:43;;;;;;;7.70;6.97;;;15.80;99.90;;;;;;5127854;27;20274;-71
2023/04/23 04:23:10;;;;;;;8.70;7.40;;;15.90;99.90;;;;;;5117901;27;20217;-70
2023/04/23 04:25:38;;;;;;;11.03;8.10;;;15.90;99.90;;;;;;5107526;28;20309;-70
2023/04/23 04:28:06;;;;;;;7.87;7.20;;;16.00;99.90;;;;;;5107421;28;20229;-69
2023/04/23 04:30:33;;;;;;;8.53;7.63;;;15.90;99.90;;;;;;5107285;28;20638;-68
2023/04/23 04:33:02;;;;;;;8.20;7.40;;;15.80;99.90;;;;;;5106631;28;20246;-70
2023/04/23 04:35:29;;;;;;;9.97;7.43;;;15.90;99.90;;;;;;5107160;27;20240;-71
2023/04/23 04:37:57;;;;;;;8.67;7.87;;;15.80;99.90;;;;;;5107236;28;20301;-70
2023/04/23 04:40:25;;;;;;;8.60;7.67;;;15.80;99.90;;;;;;5107458;28;20242;-70
2023/04/23 04:42:53;;;;;;;8.67;7.87;;;15.80;99.90;;;;;;5107052;28;20202;-70
2023/04/23 04:45:21;;;;;;;8.40;7.67;;;15.80;99.90;;;;;;5106760;28;20866;-70
2023/04/23 04:47:47;;;;;;;8.33;7.63;;;15.70;99.90;;;;;;5106833;28;20317;-70
2023/04/23 04:50:16;;;;;;;7.40;6.70;;;15.60;99.90;;;;;;5106785;28;20309;-70
2023/04/23 04:52:43;;;;;;;7.20;6.23;;;15.60;99.90;;;;;;5106958;28;20202;-70
2023/04/23 04:55:10;;;;;;;6.73;6.03;;;15.50;99.90;;;;;;5106150;27;20874;-71
2023/04/23 04:57:37;;;;;;;6.93;6.43;;;15.40;99.90;;;;;;5106959;28;21166;-71
2023/04/23 05:00:21;;;;;;;7.27;6.57;;;15.40;99.90;;;;;;5120990;27;20872;-71
2023/04/23 05:02:48;;;;;;;6.07;5.67;;;15.50;99.90;;;;;;5126996;27;20273;-71
2023/04/23 05:05:17;;;;;;;7.07;6.30;;;15.40;99.90;;;;;;5127292;27;20246;-71
2023/04/23 05:07:47;;;;;;;6.63;5.90;;;15.50;99.90;;;;;;5127336;27;20236;-71
2023/04/23 05:10:15;;;;;;;6.77;5.97;;;15.40;99.90;;;;;;5127156;27;20324;-72
2023/04/23 05:12:42;;;;;;;6.03;5.53;;;15.40;99.90;;;;;;5127115;27;20656;-71
2023/04/23 05:15:12;;;;;;;6.30;5.70;;;15.30;99.90;;;;;;5127239;27;20236;-71
2023/04/23 05:17:39;;;;;;;6.73;6.00;;;15.40;99.90;;;;;;5126869;27;20216;-71
2023/04/23 05:20:09;;;;;;;6.57;5.97;;;15.60;99.90;;;;;;5126411;27;20208;-71
2023/04/23 05:22:37;;;;;;;6.03;5.63;;;15.70;99.90;;;;;;5127055;27;20202;-71
2023/04/23 05:25:05;;;;;;;6.53;6.03;;;15.80;99.90;;;;;;5126987;27;20660;-70
2023/04/23 05:27:32;;;;;;;6.67;5.97;;;15.80;99.90;;;;;;5127417;27;20296;-70
2023/04/23 05:29:59;;;;;;;6.10;5.60;;;15.70;99.90;;;;;;5127391;27;20213;-70
2023/04/23 05:32:26;;;;;;;6.43;6.00;;;15.50;99.90;;;;;;5106833;27;20278;-70
2023/04/23 05:34:52;;;;;;;6.67;5.67;;;15.60;99.90;;;;;;5105947;28;20349;-69
2023/04/23 05:37:19;;;;;;;6.30;5.70;;;15.60;99.90;;;;;;5106408;28;20293;-69
2023/04/23 05:39:48;;;;;;;5.60;5.10;;;15.70;99.90;;;;;;5106086;28;20206;-69
2023/04/23 05:42:14;;;;;;;7.13;5.80;;;15.70;99.90;;;;;;5106129;28;20292;-69
2023/04/23 05:44:41;;;;;;;6.03;5.37;;;15.80;99.90;;;;;;5105731;28;20825;-69
2023/04/23 05:47:10;;;;;;;6.60;5.70;;;15.80;99.90;;;;;;5105760;28;21028;-70
2023/04/23 05:49:37;;;;;;;5.97;5.37;;;15.90;99.90;;;;;;5105217;28;20262;-70
2023/04/23 05:52:04;;;;;;;6.40;5.20;;;16.00;99.90;;;;;;5105205;28;20301;-70
2023/04/23 05:54:31;;;;;;;7.07;5.17;;;16.00;99.90;;;;;;5105571;28;20345;-69
2023/04/23 05:56:59;;;;;;;6.13;5.53;;;16.00;99.90;;;;;;5105700;28;20298;-69
2023/04/23 05:59:26;;;;;;;6.43;5.83;;;16.00;99.90;;;;;;5114959;27;20221;-70
2023/04/23 06:01:53;;;;;;;5.50;5.10;;;16.00;99.90;;;;;;5126171;27;20304;-70
2023/04/23 06:04:20;;;;;;;5.53;5.07;;;16.00;99.90;;;;;;5126093;27;20300;-70
2023/04/23 06:06:47;;;;;;;6.00;5.43;;;16.00;99.90;;;;;;5126131;27;20295;-70
2023/04/23 06:09:14;;;;;;;5.47;4.97;;;15.90;99.90;;;;;;5126289;27;20267;-69
2023/04/23 06:11:41;;;;;;;8.13;5.70;;;15.90;99.90;;;;;;5126290;27;20656;-69
2023/04/23 06:14:10;;;;;;;5.87;5.33;;;15.70;99.90;;;;;;5126398;27;20241;-69
2023/04/23 06:16:37;;;;;;;6.20;5.53;;;15.60;99.90;;;;;;5126159;27;20490;-69
2023/04/23 06:19:05;;;;;;;6.10;5.50;;;15.50;99.90;;;;;;5125534;27;20288;-69
2023/04/23 06:21:32;;;;;;;6.27;5.73;;;15.60;99.90;;;;;;5126258;27;20686;-69
2023/04/23 06:23:59;;;;;;;6.00;5.50;;;15.70;99.90;;;;;;5108894;27;20698;-69
2023/04/23 06:26:26;;;;;;;6.43;5.93;;;15.80;99.90;;;;;;5107204;27;20258;-70
2023/04/23 06:28:53;;;;;;;6.07;5.60;;;15.90;99.90;;;;;;5142004;27;20762;-70
2023/04/23 06:31:22;;;;;;;5.30;4.93;;;15.90;99.90;;;;;;5125733;27;20288;-70
2023/04/23 06:33:48;;;;;;;5.80;5.40;;;15.70;99.90;;;;;;5125474;27;20873;-70
2023/04/23 06:36:15;;;;;;;6.07;5.57;;;15.60;99.90;;;;;;5125960;27;20764;-70
2023/04/23 06:38:43;;;;;;;9.00;8.20;;;15.60;99.90;;;;;;5126191;27;20800;-71
2023/04/23 06:41:12;;;;;;;11.23;10.13;;;15.60;99.90;;;;;;5126179;27;20201;-70
2023/04/23 06:43:39;;;;;;;6.20;5.60;;;15.50;99.90;;;;;;5126006;27;20202;-70
2023/04/23 06:46:06;;;;;;;5.00;4.43;;;15.30;99.90;;;;;;5125800;27;20208;-70
2023/04/23 06:48:34;;;;;;;4.73;4.40;;;15.20;99.90;;;;;;5125770;27;20297;-70
2023/04/23 06:51:01;;;;;;;5.53;4.73;;;15.20;99.90;;;;;;5126186;27;20268;-69
2023/04/23 06:53:28;;;;;;;5.27;4.87;;;15.10;99.90;;;;;;5125941;27;20212;-69
2023/04/23 06:55:55;;;;;;;5.13;4.77;;;14.90;99.90;;;;;;5125539;27;20756;-69
2023/04/23 06:58:26;;;;;;;4.80;4.30;;;15.00;99.90;;;;;;5107966;27;20616;-70
2023/04/23 07:00:53;;;;;;;5.30;4.80;;;15.00;99.90;;;;;;5105065;28;20224;-70
2023/04/23 07:03:20;;;;;;;4.93;4.60;;;14.90;99.90;;;;;;5105083;28;20234;-70
2023/04/23 07:05:48;;;;;;;5.67;5.00;;;14.90;99.90;;;;;;5105020;28;20202;-70
2023/04/23 07:08:15;;;;;;;5.33;4.93;;;14.80;99.90;;;;;;5104660;28;20304;-71
2023/04/23 07:10:42;;;;;;;5.23;4.87;;;14.80;99.90;;;;;;5104910;28;20668;-70
2023/04/23 07:13:09;;;;;;;5.00;4.60;;;14.80;99.90;;;;;;5105419;28;20293;-70
2023/04/23 07:15:36;;;;;;;5.07;4.67;;;14.70;99.90;;;;;;5105357;28;20329;-70
2023/04/23 07:18:03;;;;;;;5.30;4.80;;;14.70;99.90;;;;;;5105898;28;20241;-70
2023/04/23 07:20:30;;;;;;;5.47;5.00;;;14.70;99.90;;;;;;5109011;28;20209;-70
2023/04/23 07:22:59;;;;;;;5.00;4.70;;;14.60;99.90;;;;;;5114276;27;20296;-70
2023/04/23 07:25:26;;;;;;;5.27;4.77;;;14.60;99.90;;;;;;5109052;28;20733;-70
2023/04/23 07:27:54;;;;;;;5.50;5.00;;;14.60;99.90;;;;;;5108597;28;20622;-69
2023/04/23 07:30:21;;;;;;;5.33;4.87;;;14.70;99.90;;;;;;5125149;27;20205;-69
2023/04/23 07:32:48;;;;;;;7.03;5.50;;;14.80;99.90;;;;;;5119916;27;20193;-69
2023/04/23 07:35:15;;;;;;;5.83;5.30;;;14.90;99.90;;;;;;5116966;27;20312;-69
2023/04/23 07:37:42;;;;;;;5.53;5.03;;;15.00;99.90;;;;;;5117646;27;20633;-69
2023/04/23 07:40:11;;;;;;;5.33;5.00;;;14.90;99.90;;;;;;5119065;27;20206;-69
2023/04/23 07:42:38;;;;;;;6.47;5.70;;;14.90;99.90;;;;;;5113664;27;20748;-70
2023/04/23 07:45:06;;;;;;;5.80;5.40;;;14.80;99.90;;;;;;5118820;27;20288;-70
2023/04/23 07:47:33;;;;;;;5.10;4.80;;;14.90;99.90;;;;;;5117168;27;20209;-68
2023/04/23 07:50:00;;;;;;;6.13;5.63;;;14.90;99.90;;;;;;5119352;27;20230;-68
2023/04/23 07:52:27;;;;;;;8.67;7.03;;;15.00;99.90;;;;;;5116785;27;20293;-68
2023/04/23 07:54:54;;;;;;;6.30;5.80;;;15.00;99.90;;;;;;5117005;27;20255;-69
2023/04/23 07:57:22;;;;;;;5.90;5.40;;;15.10;99.90;;;;;;5116036;27;20281;-68
2023/04/23 07:59:49;;;;;;;6.63;5.43;;;15.10;99.90;;;;;;5116646;27;20294;-68
2023/04/23 08:02:17;;;;;;;6.90;6.30;;;15.10;99.90;;;;;;5120108;27;20282;-68
2023/04/23 08:04:44;;;;;;;5.77;5.20;;;15.10;99.90;;;;;;5119870;27;20280;-69
2023/04/23 08:07:11;;;;;;;7.93;7.23;;;15.10;99.90;;;;;;5122465;27;20308;-68
2023/04/23 08:09:38;;;;;;;7.07;6.37;;;15.00;99.90;;;;;;5119665;27;20225;-69
2023/04/23 08:12:05;;;;;;;6.23;5.73;;;15.10;99.90;;;;;;5119417;27;20237;-68
2023/04/23 08:14:34;;;;;;;5.90;5.27;;;15.20;99.90;;;;;;5110327;27;20316;-69
2023/04/23 08:17:00;;;;;;;6.03;5.53;;;15.20;99.90;;;;;;5123361;27;20206;-69
2023/04/23 08:19:31;;;;;;;6.23;5.23;;;15.30;99.90;;;;;;5115816;27;20297;-69
2023/04/23 08:21:57;;;;;;;5.73;5.23;;;15.40;99.90;;;;;;5113101;27;20198;-69
2023/04/23 08:24:24;;;;;;;5.90;5.17;;;15.50;99.90;;;;;;5127694;27;20247;-69
2023/04/23 08:26:52;;;;;;;5.60;5.10;;;15.40;99.90;;;;;;5127667;27;20740;-69
2023/04/23 08:29:18;;;;;;;5.10;4.70;;;15.50;99.90;;;;;;5121180;27;20208;-68
2023/04/23 08:31:47;;;;;;;5.30;5.00;;;15.60;99.90;;;;;;5105185;28;20296;-68
2023/04/23 08:34:14;;;;;;;6.57;5.20;;;15.50;99.90;;;;;;5105332;28;20569;-68
2023/04/23 08:36:41;;;;;;;6.10;5.50;;;15.20;99.90;;;;;;5105552;28;20233;-68
2023/04/23 08:39:08;;;;;;;6.57;5.47;;;15.20;99.90;;;;;;5105069;28;20668;-69
2023/04/23 08:41:41;;;;;;;6.50;5.90;;;15.10;99.90;;;;;;5105701;28;20695;-69
2023/04/23 08:44:13;;;;;;;7.57;6.10;;;15.10;99.90;;;;;;5125490;27;20213;-69
2023/04/23 08:46:43;;;;;;;6.43;5.83;;;15.00;99.90;;;;;;5125884;27;20288;-69
2023/04/23 08:49:15;;;;;;;6.73;6.00;;;14.90;99.90;;;;;;5125502;27;20528;-69
2023/04/23 08:51:46;;;;;;;6.63;6.03;;;14.90;99.90;;;;;;5122502;27;20564;-70
2023/04/23 08:54:18;;;;;;;5.97;5.57;;;14.80;99.90;;;;;;5105203;27;20197;-69
2023/04/23 08:56:46;;;;;;;6.13;5.63;;;14.60;99.90;;;;;;5104018;28;20214;-69
2023/04/23 08:59:13;;;;;;;5.27;4.87;;;14.50;99.90;;;;;;5104477;28;20212;-69
2023/04/23 09:01:41;;;;;;;5.20;4.80;;;14.30;99.90;;;;;;5104019;28;20205;-69
2023/04/23 09:04:09;;;;;;;5.13;4.73;;;14.30;99.90;;;;;;5104671;28;20297;-69
2023/04/23 09:06:37;;;;;;;5.13;4.73;;;14.20;99.90;;;;;;5104934;28;20344;-69
2023/04/23 09:09:06;;;;;;;4.70;4.30;;;14.30;99.90;;;;;;5104604;28;20932;-69
2023/04/23 09:11:36;;;;;;;4.33;4.03;;;14.20;99.90;;;;;;5104664;28;20241;-69
2023/04/23 09:14:03;;;;;;;3.80;3.53;;;14.30;99.90;;;;;;5104550;28;20206;-69
2023/04/23 09:16:30;;;;;;;3.10;2.90;;;14.20;99.90;;;;;;5117308;27;20237;-69
2023/04/23 09:18:59;;;;;;;2.70;2.60;;;14.10;99.90;;;;;;5125129;27;20208;-68
2023/04/23 09:21:26;;;;;;;2.50;2.40;;;14.10;99.90;;;;;;5125603;27;20652;-69
2023/04/23 09:23:55;;;;;;;2.53;2.33;;;14.00;99.90;;;;;;5125202;27;20206;-69
2023/04/23 09:26:25;;;;;;;2.63;2.47;;;13.90;99.90;;;;;;5125635;27;20763;-69
2023/04/23 09:28:52;;;;;;;2.53;2.40;;;13.80;99.90;;;;;;5125372;27;20210;-69
2023/04/23 09:31:23;;;;;;;2.77;2.57;;;13.80;99.90;;;;;;5125273;27;20205;-69
2023/04/23 09:33:54;;;;;;;2.87;2.60;;;13.80;99.90;;;;;;5124544;27;20691;-69
2023/04/23 09:36:22;;;;;;;3.10;2.90;;;13.80;99.90;;;;;;5124657;27;20774;-69
2023/04/23 09:38:50;;;;;;;2.67;2.47;;;13.90;99.90;;;;;;5124502;27;20221;-69
2023/04/23 09:41:25;;;;;;;4.10;3.80;;;13.90;99.90;;;;;;5124377;27;20205;-70
2023/04/23 09:43:54;;;;;;;3.87;3.17;;;14.00;99.90;;;;;;5124504;27;20285;-70
2023/04/23 09:46:33;;;;;;;3.13;2.93;;;14.00;99.90;;;;;;5124803;27;20212;-70
2023/04/23 09:49:02;;;;;;;3.70;3.40;;;13.90;99.90;;;;;;5124432;27;20189;-70
2023/04/23 09:51:30;;;;;;;3.60;3.40;;;13.80;99.90;;;;;;5124362;27;20209;-70
2023/04/23 09:53:57;;;;;;;4.67;4.37;;;13.80;99.90;;;;;;5124187;27;20246;-71
2023/04/23 09:56:26;;;;;;;4.90;4.50;;;13.70;99.90;;;;;;5123308;27;20770;-70
2023/04/23 09:58:53;;;;;;;5.13;4.73;;;13.60;99.90;;;;;;5112556;27;21017;-70
2023/04/23 10:01:28;;;;;;;5.37;4.97;;;13.70;99.90;;;;;;5146013;27;20371;-71
2023/04/23 10:03:56;;;;;;;6.43;5.93;;;13.60;99.90;;;;;;5145775;27;20189;-70
2023/04/23 10:06:30;;;;;;;7.27;6.67;;;13.60;99.90;;;;;;5145826;27;20214;-69
2023/04/23 10:08:57;;;;;;;7.93;7.23;;;13.60;99.90;;;;;;5145217;27;20268;-69
2023/04/23 10:11:26;;;;;;;7.43;6.93;;;13.70;99.90;;;;;;5144621;27;20276;-69
2023/04/23 10:13:54;;;;;;;7.87;6.87;;;13.80;99.90;;;;;;5124620;27;20296;-69
2023/04/23 10:16:23;;;;;;;7.57;6.97;;;13.90;99.90;;;;;;5124542;27;20229;-69
2023/04/23 10:18:51;;;;;;;7.83;7.23;;;13.90;99.90;;;;;;5123873;27;20682;-69
2023/04/23 10:21:20;;;;;;;7.83;7.23;;;14.00;99.90;;;;;;5124340;27;20308;-70
2023/04/23 10:23:50;;;;;;;8.00;7.30;;;14.00;99.90;;;;;;5109542;27;20221;-69
2023/04/23 10:26:17;;;;;;;8.60;7.90;;;14.00;99.90;;;;;;5103756;28;20664;-69
2023/04/23 10:28:48;;;;;;;8.20;7.60;;;13.90;99.90;;;;;;5109932;27;20304;-69
2023/04/23 10:31:15;;;;;;;8.40;7.60;;;14.00;99.90;;;;;;5145073;27;20572;-69
2023/04/23 10:33:43;;;;;;;7.90;7.27;;;14.10;99.90;;;;;;5144860;27;20307;-68
2023/04/23 10:36:11;;;;;;;8.37;7.67;;;14.20;99.90;;;;;;5145044;27;20289;-71
2023/04/23 10:38:40;;;;;;;7.60;7.00;;;14.30;99.90;;;;;;5145446;27;20290;-70
2023/04/23 10:41:08;;;;;;;8.60;7.63;;;14.30;99.90;;;;;;5145369;27;20550;-70
2023/04/23 10:43:36;;;;;;;9.37;8.50;;;14.40;99.90;;;;;;5145400;27;20309;-70
2023/04/23 10:46:23;;;;;;;9.60;8.67;;;14.40;99.90;;;;;;5145318;27;20205;-70
2023/04/23 10:49:04;;;;;;;9.33;8.53;;;14.30;99.90;;;;;;5145408;27;20265;-70
2023/04/23 10:51:35;;;;;;;9.47;8.67;;;14.20;99.90;;;;;;5145390;27;20203;-71
2023/04/23 10:54:05;;;;;;;10.23;9.13;;;14.20;99.90;;;;;;5147650;27;20862;-70
2023/04/23 10:56:32;;;;;;;9.63;8.77;;;14.20;99.90;;;;;;5146879;27;20347;-70
2023/04/23 10:58:59;;;;;;;9.63;8.73;;;14.20;99.90;;;;;;5133415;27;20295;-70
2023/04/23 11:01:29;;;;;;;12.27;11.23;;;14.30;99.90;;;;;;5149150;27;20315;-70
2023/04/23 11:03:56;;;;;;;11.80;10.73;;;14.40;99.90;;;;;;5148645;27;20748;-70
2023/04/23 11:06:51;;;;;;;8.97;8.10;;;14.30;99.90;;;;;;5149042;27;20204;-70
2023/04/23 11:09:46;;;;;;;9.67;8.87;;;14.60;99.90;;;;;;5134424;27;20251;-70
2023/04/23 11:12:30;;;;;;;9.13;8.33;;;14.90;99.90;;;;;;5091646;27;20206;-70
2023/04/23 11:14:59;;;;;;;9.57;8.73;;;14.90;99.90;;;;;;5127998;27;20273;-70
2023/04/23 11:18:00;;;;;;;10.27;9.30;;;14.90;99.90;;;;;;5127917;27;20321;-70
2023/04/23 11:20:26;;;;;;;9.30;8.50;;;14.60;99.90;;;;;;5128073;27;20213;-71
2023/04/23 11:22:53;;;;;;;9.40;8.60;;;14.60;99.90;;;;;;5127661;27;20292;-70
2023/04/23 11:25:22;;;;;;;8.00;7.40;;;14.70;99.90;;;;;;5127928;27;20209;-70
2023/04/23 11:27:50;;;;;;;8.90;8.10;;;14.60;99.90;;;;;;5128259;27;20324;-70
2023/04/23 11:30:18;;;;;;;8.80;7.90;;;14.50;99.90;;;;;;5128340;27;20283;-70
2023/04/23 11:32:48;;;;;;;8.50;7.77;;;14.60;99.90;;;;;;5128067;27;20205;-70
2023/04/23 11:35:16;;;;;;;7.00;6.50;;;14.70;99.90;;;;;;5127342;27;20586;-70
2023/04/23 11:37:45;;;;;;;9.43;8.40;;;14.80;99.90;;;;;;5127575;27;20691;-70
2023/04/23 11:40:17;;;;;;;6.93;6.33;;;15.00;99.90;;;;;;5127813;27;20209;-70
2023/04/23 11:42:46;;;;;;;6.10;5.70;;;15.20;99.90;;;;;;5127820;27;20651;-70
2023/04/23 11:45:17;;;;;;;5.70;5.20;;;15.40;99.90;;;;;;5127902;27;20208;-70
2023/04/23 11:47:46;;;;;;;4.90;4.60;;;15.60;99.90;;;;;;5127808;27;20221;-70
2023/04/23 11:50:18;;;;;;;5.10;4.70;;;16.00;99.90;;;;;;5128054;27;20300;-70
2023/04/23 11:52:45;;;;;;;5.53;4.73;;;16.30;99.90;;;;;;5127859;27;20281;-70
2023/04/23 11:55:12;;;;;;;5.13;4.73;;;16.30;99.90;;;;;;5127506;27;20573;-70
2023/04/23 11:57:42;;;;;;;6.00;5.60;;;16.30;99.90;;;;;;5115766;27;20241;-70
2023/04/23 12:00:15;;;;;;;5.27;4.90;;;16.30;99.90;;;;;;5106464;28;20320;-70
2023/04/23 12:02:55;;;;;;;6.60;6.00;;;16.40;99.90;;;;;;5106800;27;20263;-70
2023/04/23 12:05:23;;;;;;;6.77;5.73;;;16.40;99.90;;;;;;5119235;27;20646;-70
2023/04/23 12:07:51;;;;;;;5.40;5.10;;;16.60;99.90;;;;;;5127230;27;20278;-70
2023/04/23 12:10:20;;;;;;;5.53;5.13;;;16.70;99.90;;;;;;5127206;27;20246;-70
2023/04/23 12:12:51;;;;;;;5.93;5.43;;;16.90;99.90;;;;;;5127203;27;20206;-70
2023/04/23 12:15:21;;;;;;;5.07;4.77;;;17.00;99.90;;;;;;5127180;27;20659;-71
2023/04/23 12:18:09;;;;;;;5.30;4.90;;;17.20;99.90;;;;;;5114525;27;20322;-70
2023/04/23 12:20:36;;;;;;;5.23;4.83;;;17.50;99.90;;;;;;5106029;28;20198;-70
2023/04/23 12:23:05;;;;;;;5.80;4.57;;;17.50;99.90;;;;;;5115035;27;20248;-70
2023/04/23 12:25:33;;;;;;;4.83;4.50;;;17.60;99.90;;;;;;5126633;27;20213;-71
2023/04/23 12:28:00;;;;;;;3.90;3.60;;;17.80;99.90;;;;;;5126535;27;20288;-70
2023/04/23 12:30:29;;;;;;;3.97;3.67;;;17.90;99.90;;;;;;5126851;27;20262;-70
2023/04/23 12:33:01;;;;;;;3.97;3.67;;;17.90;99.90;;;;;;5127029;27;20284;-70
2023/04/23 12:35:41;;;;;;;3.90;3.60;;;18.00;99.90;;;;;;5126609;27;20808;-70
2023/04/23 12:38:20;;;;;;;3.73;3.40;;;17.90;99.90;;;;;;5126240;27;20288;-71
2023/04/23 12:40:47;;;;;;;3.47;3.27;;;17.90;99.90;;;;;;5126074;27;20224;-71
2023/04/23 12:43:14;;;;;;;2.97;2.77;;;18.20;99.90;;;;;;5126250;27;20677;-71
2023/04/23 12:45:41;;;;;;;10.57;3.03;;;18.40;99.90;;;;;;5126233;27;20296;-70
2023/04/23 12:48:10;;;;;;;3.60;3.30;;;18.50;99.90;;;;;;5126008;27;20567;-71
2023/04/23 12:50:37;;;;;;;3.23;2.93;;;18.40;99.90;;;;;;5126161;27;20241;-71
2023/04/23 12:53:04;;;;;;;2.43;2.33;;;18.40;99.90;;;;;;5126547;27;20715;-71